createdAt,value
2022-07-30T00:00:31.657Z,23.91
2022-07-30T00:03:01.425Z,23.32
2022-07-30T00:05:30.093Z,23.48
2022-07-30T00:07:58.450Z,23.87
2022-07-30T00:10:27.856Z,23.99
2022-07-30T00:12:57.309Z,23.91
2022-07-30T00:15:25.708Z,23.96
2022-07-30T00:17:54.189Z,24.11
2022-07-30T00:20:27.894Z,24.09
2022-07-30T00:22:56.622Z,24.05
2022-07-30T00:25:25.320Z,24.03
2022-07-30T00:27:53.734Z,23.94
2022-07-30T00:30:22.124Z,23.94
2022-07-30T00:32:50.573Z,23.61
2022-07-30T00:35:19.037Z,23.52
2022-07-30T00:37:48.862Z,23.25
2022-07-30T00:40:17.191Z,23.58
2022-07-30T00:42:47.407Z,23.54
2022-07-30T00:45:17.497Z,23.69
2022-07-30T00:47:46.814Z,23.74
2022-07-30T00:50:16.238Z,23.63
2022-07-30T00:52:44.989Z,23.38
2022-07-30T00:55:16.406Z,23.19
2022-07-30T00:57:44.854Z,23.11
2022-07-30T01:00:15.993Z,23.36
2022-07-30T01:02:44.525Z,23.41
2022-07-30T01:05:13.364Z,23.46
2022-07-30T01:07:42.927Z,23.53
2022-07-30T01:10:13.901Z,23.53
2022-07-30T01:12:44.433Z,23.50
2022-07-30T01:15:13.197Z,23.44
2022-07-30T01:17:41.876Z,23.41
2022-07-30T01:20:14.590Z,23.33
2022-07-30T01:22:59.213Z,23.45
2022-07-30T01:25:49.710Z,23.35
2022-07-30T01:28:23.099Z,23.33
2022-07-30T01:30:54.000Z,22.99
2022-07-30T01:33:24.487Z,23.29
2022-07-30T01:35:53.992Z,23.22
2022-07-30T01:38:23.994Z,22.90
2022-07-30T01:40:53.249Z,22.91
2022-07-30T01:43:25.766Z,23.07
2022-07-30T01:45:55.445Z,22.95
2022-07-30T01:48:26.493Z,22.57
2022-07-30T01:50:59.662Z,22.84
2022-07-30T01:53:31.444Z,23.01
2022-07-30T01:56:01.586Z,22.87
2022-07-30T01:58:35.482Z,22.90
2022-07-30T02:01:04.077Z,22.99
2022-07-30T02:03:34.219Z,23.02
2022-07-30T02:06:19.159Z,22.98
2022-07-30T02:09:00.718Z,22.89
2022-07-30T02:11:47.131Z,22.85
2022-07-30T02:14:24.176Z,22.47
2022-07-30T02:16:56.311Z,22.66
2022-07-30T02:19:32.533Z,22.62
2022-07-30T02:22:06.811Z,22.36
2022-07-30T02:24:39.943Z,22.73
2022-07-30T02:27:15.384Z,22.74
2022-07-30T02:29:47.374Z,22.69
2022-07-30T02:32:18.978Z,22.64
2022-07-30T02:34:51.260Z,22.59
2022-07-30T02:37:41.576Z,22.63
2022-07-30T02:40:16.096Z,22.62
2022-07-30T02:42:47.316Z,22.66
2022-07-30T02:45:19.064Z,22.70
2022-07-30T02:47:50.104Z,22.60
2022-07-30T02:50:20.247Z,22.07
2022-07-30T02:52:50.824Z,22.58
2022-07-30T02:55:20.121Z,22.21
2022-07-30T02:57:49.710Z,22.10
2022-07-30T03:00:20.030Z,22.28
2022-07-30T03:02:49.101Z,22.31
2022-07-30T03:05:17.786Z,22.12
2022-07-30T03:07:47.652Z,21.68
2022-07-30T03:10:17.533Z,21.83
2022-07-30T03:12:47.401Z,20.92
2022-07-30T03:15:15.946Z,21.14
2022-07-30T03:17:47.854Z,20.85
2022-07-30T03:20:21.467Z,21.72
2022-07-30T03:22:52.808Z,21.80
2022-07-30T03:25:25.771Z,21.72
2022-07-30T03:27:56.638Z,21.82
2022-07-30T03:30:26.891Z,21.94
2022-07-30T03:32:57.906Z,22.00
2022-07-30T03:35:27.496Z,22.06
2022-07-30T03:38:01.324Z,21.78
2022-07-30T03:40:31.010Z,22.13
2022-07-30T03:42:59.733Z,22.04
2022-07-30T03:45:28.388Z,21.23
2022-07-30T03:47:59.004Z,21.63
2022-07-30T03:50:28.404Z,21.66
2022-07-30T03:52:56.903Z,22.15
2022-07-30T03:55:25.712Z,22.13
2022-07-30T03:57:54.113Z,22.24
2022-07-30T04:00:22.635Z,22.17
2022-07-30T04:02:51.434Z,22.25
2022-07-30T04:05:21.818Z,22.29
2022-07-30T04:07:50.367Z,22.32
2022-07-30T04:10:19.125Z,22.36
2022-07-30T04:12:47.508Z,22.43
2022-07-30T04:16:04.942Z,22.44
2022-07-30T04:18:07.716Z,22.46
2022-07-30T04:20:43.145Z,22.33
2022-07-30T04:23:13.301Z,21.58
2022-07-30T04:25:43.744Z,21.90
2022-07-30T04:28:13.754Z,22.04
2022-07-30T04:30:42.909Z,22.44
2022-07-30T04:33:11.357Z,22.37
2022-07-30T04:35:51.238Z,22.56
2022-07-30T04:38:21.576Z,22.80
2022-07-30T04:40:49.982Z,22.85
2022-07-30T04:43:18.468Z,22.45
2022-07-30T04:45:46.932Z,22.35
2022-07-30T04:48:15.388Z,21.91
2022-07-30T04:50:50.332Z,22.60
2022-07-30T04:53:19.978Z,22.87
2022-07-30T04:55:50.250Z,22.85
2022-07-30T04:58:21.280Z,22.68
2022-07-30T05:00:53.386Z,23.26
2022-07-30T05:03:24.698Z,23.42
2022-07-30T05:05:57.444Z,23.22
2022-07-30T05:08:26.198Z,22.40
2022-07-30T05:10:54.707Z,22.19
2022-07-30T05:13:23.202Z,21.93
2022-07-30T05:16:03.031Z,21.48
2022-07-30T05:18:31.461Z,21.29
2022-07-30T05:21:01.404Z,21.79
2022-07-30T05:23:29.876Z,22.22
2022-07-30T05:25:58.358Z,22.21
2022-07-30T05:28:27.005Z,22.41
2022-07-30T05:30:55.989Z,22.93
2022-07-30T05:33:42.212Z,22.74
2022-07-30T05:36:12.691Z,23.39
2022-07-30T05:38:41.070Z,23.69
2022-07-30T05:41:31.704Z,23.49
2022-07-30T05:43:58.222Z,23.96
2022-07-30T05:46:27.235Z,24.28
2022-07-30T05:48:55.804Z,24.43
2022-07-30T05:51:25.675Z,24.33
2022-07-30T05:53:54.100Z,24.53
2022-07-30T05:56:22.502Z,24.65
2022-07-30T05:58:50.808Z,25.17
2022-07-30T06:01:19.484Z,24.79
2022-07-30T06:03:47.998Z,25.38
2022-07-30T06:06:20.982Z,25.96
2022-07-30T06:08:52.701Z,25.81
2022-07-30T06:11:21.330Z,26.02
2022-07-30T06:13:49.707Z,25.82
2022-07-30T06:16:18.092Z,26.53
2022-07-30T06:18:46.500Z,26.57
2022-07-30T06:21:14.845Z,26.70
2022-07-30T06:23:43.193Z,26.99
2022-07-30T06:26:12.998Z,27.26
2022-07-30T06:28:41.382Z,26.64
2022-07-30T06:31:09.769Z,27.55
2022-07-30T06:33:38.247Z,27.52
2022-07-30T06:36:07.133Z,27.04
2022-07-30T06:38:35.479Z,27.41
2022-07-30T06:41:04.465Z,28.02
2022-07-30T06:43:34.620Z,28.27
2022-07-30T06:46:02.986Z,28.26
2022-07-30T06:48:32.971Z,28.53
2022-07-30T06:51:01.413Z,29.19
2022-07-30T06:53:29.944Z,28.58
2022-07-30T06:56:00.710Z,29.33
2022-07-30T06:58:29.925Z,29.14
2022-07-30T07:00:59.634Z,29.32
2022-07-30T07:03:39.649Z,28.56
2022-07-30T07:06:09.146Z,29.17
2022-07-30T07:08:38.504Z,30.05
2022-07-30T07:11:07.138Z,29.52
2022-07-30T07:13:35.541Z,30.18
2022-07-30T07:16:05.682Z,29.20
2022-07-30T07:18:34.028Z,28.65
2022-07-30T07:21:02.416Z,29.29
2022-07-30T07:23:42.001Z,29.95
2022-07-30T07:26:12.443Z,29.65
2022-07-30T07:28:41.421Z,30.21
2022-07-30T07:32:05.821Z,30.30
2022-07-30T07:34:00.467Z,30.48
2022-07-30T07:36:28.928Z,30.47
2022-07-30T07:38:57.593Z,30.76
2022-07-30T07:41:26.350Z,30.70
2022-07-30T07:43:54.660Z,30.68
2022-07-30T07:46:33.967Z,30.91
2022-07-30T07:49:03.021Z,31.36
2022-07-30T07:51:47.368Z,31.24
2022-07-30T07:54:23.834Z,31.59
2022-07-30T07:56:53.360Z,31.06
2022-07-30T07:59:21.923Z,31.01
2022-07-30T08:01:52.802Z,31.28
2022-07-30T08:04:21.184Z,31.45
2022-07-30T08:06:49.494Z,31.40
2022-07-30T08:09:17.885Z,31.04
2022-07-30T08:11:46.285Z,31.30
2022-07-30T08:14:14.697Z,32.47
2022-07-30T08:16:43.031Z,32.72
2022-07-30T08:19:13.351Z,32.65
2022-07-30T08:21:41.751Z,32.97
2022-07-30T08:24:10.229Z,32.80
2022-07-30T08:26:38.645Z,33.03
2022-07-30T08:29:06.988Z,33.67
2022-07-30T08:31:35.473Z,34.33
2022-07-30T08:34:04.071Z,34.56
2022-07-30T08:36:33.898Z,34.00
2022-07-30T08:39:02.258Z,33.92
2022-07-30T08:41:31.902Z,34.90
2022-07-30T08:44:02.295Z,34.61
2022-07-30T08:46:34.680Z,33.85
2022-07-30T08:49:09.068Z,34.89
2022-07-30T08:51:41.223Z,35.41
2022-07-30T08:54:09.776Z,35.03
2022-07-30T08:56:38.637Z,35.31
2022-07-30T08:59:07.176Z,35.53
2022-07-30T09:01:35.554Z,35.25
2022-07-30T09:06:38.074Z,34.78
2022-07-30T09:09:08.100Z,35.50
2022-07-30T09:11:37.089Z,36.31
2022-07-30T09:14:13.280Z,35.75
2022-07-30T09:16:43.281Z,36.24
2022-07-30T09:19:17.260Z,35.13
2022-07-30T09:21:57.264Z,36.37
2022-07-30T09:24:28.296Z,34.91
2022-07-30T09:26:59.305Z,35.21
2022-07-30T09:29:29.514Z,35.17
2022-07-30T09:32:00.405Z,35.30
2022-07-30T09:34:32.268Z,35.67
2022-07-30T09:37:03.076Z,36.20
2022-07-30T09:39:35.094Z,36.67
2022-07-30T09:42:04.693Z,36.50
2022-07-30T09:44:33.503Z,36.81
2022-07-30T09:47:03.128Z,37.57
2022-07-30T09:49:31.657Z,37.70
2022-07-30T09:52:00.509Z,37.48
2022-07-30T09:54:51.674Z,36.78
2022-07-30T09:57:25.691Z,36.82
2022-07-30T09:59:54.685Z,37.38
2022-07-30T10:02:32.221Z,37.83
2022-07-30T10:05:14.156Z,37.18
2022-07-30T10:07:51.185Z,36.56
2022-07-30T10:10:25.821Z,37.55
2022-07-30T10:12:58.238Z,38.70
2022-07-30T10:15:30.905Z,38.31
2022-07-30T10:18:02.145Z,38.35
2022-07-30T10:20:32.198Z,38.28
2022-07-30T10:23:07.791Z,38.73
2022-07-30T10:25:49.091Z,37.46
2022-07-30T10:28:24.024Z,37.44
2022-07-30T10:30:53.321Z,37.99
2022-07-30T10:33:34.430Z,37.74
2022-07-30T10:36:05.829Z,37.76
2022-07-30T10:38:41.429Z,39.13
2022-07-30T10:41:44.428Z,39.16
2022-07-30T10:44:51.900Z,38.33
2022-07-30T10:47:24.683Z,38.26
2022-07-30T10:50:22.288Z,38.81
2022-07-30T10:52:53.479Z,38.87
2022-07-30T10:55:37.129Z,38.92
2022-07-30T10:58:10.742Z,39.49
2022-07-30T11:01:00.555Z,40.17
2022-07-30T11:03:40.397Z,40.55
2022-07-30T11:06:32.201Z,40.12
2022-07-30T11:09:03.625Z,39.46
2022-07-30T11:12:05.496Z,38.41
2022-07-30T11:15:06.672Z,39.94
2022-07-30T11:18:12.540Z,40.64
2022-07-30T11:20:43.247Z,39.40
2022-07-30T11:23:39.051Z,39.63
2022-07-30T11:26:08.353Z,39.52
2022-07-30T11:28:45.011Z,40.25
2022-07-30T11:31:55.006Z,39.29
2022-07-30T11:34:31.214Z,40.16
2022-07-30T11:37:18.391Z,40.09
2022-07-30T11:40:13.514Z,40.34
2022-07-30T11:42:43.756Z,41.03
2022-07-30T11:45:29.876Z,41.00
2022-07-30T11:48:01.486Z,39.30
2022-07-30T11:50:32.083Z,38.64
2022-07-30T11:53:03.837Z,38.46
2022-07-30T11:55:36.997Z,38.33
2022-07-30T11:58:07.532Z,38.34
2022-07-30T12:00:38.322Z,38.18
2022-07-30T12:03:13.024Z,37.85
2022-07-30T12:05:42.052Z,37.86
2022-07-30T12:08:35.335Z,38.88
2022-07-30T12:11:01.216Z,37.95
2022-07-30T12:13:43.927Z,37.47
2022-07-30T12:16:16.496Z,38.33
2022-07-30T12:18:47.218Z,38.76
2022-07-30T12:21:17.013Z,39.32
2022-07-30T12:23:55.716Z,39.13
2022-07-30T12:26:26.600Z,39.33
2022-07-30T12:28:56.369Z,39.52
2022-07-30T12:31:25.132Z,38.73
2022-07-30T12:33:58.962Z,39.00
2022-07-30T12:36:31.212Z,39.16
2022-07-30T12:39:00.544Z,39.21
2022-07-30T12:41:54.042Z,37.20
2022-07-30T12:44:39.377Z,36.94
2022-07-30T12:47:19.362Z,36.91
2022-07-30T12:49:50.416Z,36.51
2022-07-30T12:52:28.261Z,36.02
2022-07-30T12:55:06.809Z,36.70
2022-07-30T12:57:55.433Z,36.82
2022-07-30T13:00:25.709Z,36.29
2022-07-30T13:02:54.226Z,35.54
2022-07-30T13:05:44.073Z,34.98
2022-07-30T13:08:12.637Z,34.96
2022-07-30T13:10:54.756Z,35.98
2022-07-30T13:13:23.156Z,36.35
2022-07-30T13:16:02.949Z,36.93
2022-07-30T13:18:31.949Z,37.19
2022-07-30T13:21:02.692Z,35.93
2022-07-30T13:23:31.483Z,35.31
2022-07-30T13:25:59.989Z,35.31
2022-07-30T13:28:28.733Z,36.03
2022-07-30T13:30:58.130Z,35.97
2022-07-30T13:33:26.701Z,36.02
2022-07-30T13:35:55.649Z,35.82
2022-07-30T13:38:25.565Z,37.01
2022-07-30T13:40:56.934Z,35.58
2022-07-30T13:43:27.853Z,34.95
2022-07-30T13:45:59.896Z,34.98
2022-07-30T13:48:28.544Z,34.40
2022-07-30T13:50:57.105Z,35.05
2022-07-30T13:53:26.936Z,35.22
2022-07-30T13:55:55.426Z,35.75
2022-07-30T13:58:23.849Z,35.92
2022-07-30T14:00:52.216Z,35.86
2022-07-30T14:03:20.650Z,35.49
2022-07-30T14:05:49.686Z,35.66
2022-07-30T14:08:18.081Z,36.08
2022-07-30T14:10:47.877Z,35.82
2022-07-30T14:13:20.862Z,35.37
2022-07-30T14:15:49.925Z,34.73
2022-07-30T14:18:18.486Z,34.70
2022-07-30T14:20:48.813Z,34.75
2022-07-30T14:23:17.769Z,35.02
2022-07-30T14:25:47.554Z,34.88
2022-07-30T14:28:16.502Z,34.28
2022-07-30T14:30:45.076Z,34.69
2022-07-30T14:33:13.621Z,33.96
2022-07-30T14:35:41.981Z,34.34
2022-07-30T14:38:10.327Z,34.28
2022-07-30T14:40:38.657Z,34.39
2022-07-30T14:43:08.427Z,34.40
2022-07-30T14:45:37.715Z,35.06
2022-07-30T14:48:06.624Z,35.51
2022-07-30T14:50:42.701Z,35.58
2022-07-30T14:53:23.402Z,35.72
2022-07-30T14:55:51.820Z,35.81
2022-07-30T14:58:21.588Z,35.64
2022-07-30T15:00:49.989Z,35.38
2022-07-30T15:03:18.682Z,34.94
2022-07-30T15:05:52.148Z,35.04
2022-07-30T15:08:21.055Z,34.94
2022-07-30T15:10:49.481Z,34.43
2022-07-30T15:13:18.176Z,33.99
2022-07-30T15:15:49.452Z,34.19
2022-07-30T15:18:17.806Z,34.31
2022-07-30T15:20:46.543Z,34.32
2022-07-30T15:23:15.528Z,33.95
2022-07-30T15:25:44.172Z,33.49
2022-07-30T15:28:12.589Z,33.25
2022-07-30T15:30:44.518Z,33.52
2022-07-30T15:33:14.952Z,34.09
2022-07-30T15:35:44.065Z,33.78
2022-07-30T15:38:12.432Z,33.91
2022-07-30T15:40:41.114Z,33.63
2022-07-30T15:43:10.096Z,33.14
2022-07-30T15:45:55.869Z,32.81
2022-07-30T15:48:27.882Z,32.83
2022-07-30T15:51:02.866Z,32.96
2022-07-30T15:53:31.788Z,32.50
2022-07-30T15:56:00.451Z,32.61
2022-07-30T15:58:28.976Z,32.68
2022-07-30T16:00:57.705Z,32.74
2022-07-30T16:03:27.572Z,32.38
2022-07-30T16:05:56.648Z,32.21
2022-07-30T16:08:25.397Z,31.59
2022-07-30T16:10:53.753Z,31.45
2022-07-30T16:13:22.125Z,31.72
2022-07-30T16:15:50.459Z,31.53
2022-07-30T16:18:19.139Z,31.70
2022-07-30T16:20:48.891Z,31.71
2022-07-30T16:23:21.312Z,31.64
2022-07-30T16:25:50.123Z,31.24
2022-07-30T16:28:18.493Z,31.05
2022-07-30T16:30:50.997Z,30.93
2022-07-30T16:33:20.125Z,30.95
2022-07-30T16:35:51.292Z,30.88
2022-07-30T16:38:20.992Z,30.76
2022-07-30T16:40:49.788Z,30.76
2022-07-30T16:43:19.722Z,30.68
2022-07-30T16:45:48.732Z,30.56
2022-07-30T16:48:17.248Z,30.51
2022-07-30T16:50:46.627Z,30.47
2022-07-30T16:53:18.077Z,30.96
2022-07-30T16:55:47.338Z,31.10
2022-07-30T16:58:28.289Z,31.05
2022-07-30T17:00:59.721Z,30.52
2022-07-30T17:03:28.266Z,30.26
2022-07-30T17:05:57.162Z,30.19
2022-07-30T17:08:26.953Z,30.23
2022-07-30T17:10:57.224Z,30.07
2022-07-30T17:13:26.794Z,30.28
2022-07-30T17:15:55.145Z,30.19
2022-07-30T17:18:23.553Z,30.21
2022-07-30T17:20:54.344Z,30.20
2022-07-30T17:23:22.779Z,29.89
2022-07-30T17:25:52.526Z,29.52
2022-07-30T17:28:27.063Z,29.61
2022-07-30T17:30:55.709Z,29.92
2022-07-30T17:33:24.813Z,29.44
2022-07-30T17:35:53.406Z,29.64
2022-07-30T17:38:23.592Z,29.45
2022-07-30T17:40:54.716Z,29.38
2022-07-30T17:43:23.453Z,28.93
2022-07-30T17:46:03.810Z,29.22
2022-07-30T17:48:33.373Z,29.16
2022-07-30T17:51:12.832Z,29.29
2022-07-30T17:53:43.158Z,29.26
2022-07-30T17:56:29.385Z,29.10
2022-07-30T17:58:59.582Z,28.95
2022-07-30T18:02:05.539Z,28.62
2022-07-30T18:04:35.082Z,28.91
2022-07-30T18:07:03.591Z,28.94
2022-07-30T18:09:39.065Z,28.32
2022-07-30T18:12:11.070Z,28.77
2022-07-30T18:14:39.521Z,28.76
2022-07-30T18:17:12.420Z,28.81
2022-07-30T18:19:42.895Z,28.56
2022-07-30T18:22:14.720Z,28.47
2022-07-30T18:24:44.228Z,28.26
2022-07-30T18:27:14.578Z,28.24
2022-07-30T18:29:43.126Z,27.34
2022-07-30T18:32:11.504Z,27.84
2022-07-30T18:34:39.861Z,27.69
2022-07-30T18:37:08.449Z,27.99
2022-07-30T18:39:36.807Z,27.64
2022-07-30T18:42:05.823Z,27.87
2022-07-30T18:44:36.986Z,27.64
2022-07-30T18:47:05.483Z,27.63
2022-07-30T18:49:36.977Z,27.48
2022-07-30T18:52:07.585Z,27.82
2022-07-30T18:54:37.762Z,27.95
2022-07-30T18:57:09.065Z,27.98
2022-07-30T18:59:43.115Z,27.83
2022-07-30T19:02:11.489Z,27.84
2022-07-30T19:04:40.005Z,27.98
2022-07-30T19:07:08.541Z,27.98
2022-07-30T19:09:37.010Z,27.96
2022-07-30T19:12:06.466Z,27.95
2022-07-30T19:14:35.182Z,27.82
2022-07-30T19:17:13.621Z,27.94
2022-07-30T19:19:42.614Z,27.94
2022-07-30T19:22:11.124Z,27.93
2022-07-30T19:24:39.504Z,27.58
2022-07-30T19:27:13.693Z,27.06
2022-07-30T19:29:43.595Z,26.55
2022-07-30T19:32:13.803Z,26.06
2022-07-30T19:34:43.709Z,26.03
2022-07-30T19:37:12.172Z,26.63
2022-07-30T19:39:58.910Z,26.93
2022-07-30T19:42:29.261Z,26.94
2022-07-30T19:44:59.066Z,26.49
2022-07-30T19:47:35.353Z,26.84
2022-07-30T19:50:10.222Z,27.00
2022-07-30T19:52:40.511Z,27.06
2022-07-30T19:55:34.993Z,27.07
2022-07-30T19:58:05.039Z,26.86
2022-07-30T20:00:49.248Z,27.04
2022-07-30T20:03:35.076Z,26.65
2022-07-30T20:06:03.453Z,26.29
2022-07-30T20:08:32.078Z,26.28
2022-07-30T20:11:01.565Z,25.94
2022-07-30T20:13:43.886Z,25.71
2022-07-30T20:16:14.812Z,26.07
2022-07-30T20:18:46.121Z,26.27
2022-07-30T20:21:16.210Z,26.45
2022-07-30T20:23:45.360Z,26.61
2022-07-30T20:26:15.159Z,26.68
2022-07-30T20:28:44.965Z,26.67
2022-07-30T20:31:14.344Z,25.90
2022-07-30T20:33:49.514Z,25.43
2022-07-30T20:36:19.611Z,25.42
2022-07-30T20:38:49.426Z,25.20
2022-07-30T20:41:17.887Z,25.15
2022-07-30T20:43:52.531Z,25.32
2022-07-30T20:46:23.784Z,25.18
2022-07-30T20:48:53.923Z,25.27
2022-07-30T20:51:33.470Z,25.65
2022-07-30T20:54:02.361Z,25.74
2022-07-30T20:56:31.124Z,25.38
2022-07-30T20:58:59.484Z,25.09
2022-07-30T21:01:30.828Z,23.83
2022-07-30T21:04:00.789Z,23.45
2022-07-30T21:06:29.244Z,22.30
2022-07-30T21:08:57.659Z,22.38
2022-07-30T21:11:26.750Z,22.11
2022-07-30T21:13:55.170Z,22.88
2022-07-30T21:16:23.844Z,22.98
2022-07-30T21:18:52.633Z,23.16
2022-07-30T21:21:30.591Z,23.34
2022-07-30T21:24:11.722Z,23.13
2022-07-30T21:26:41.628Z,22.68
2022-07-30T21:29:11.108Z,23.18
2022-07-30T21:32:03.239Z,23.56
2022-07-30T21:34:35.208Z,23.75
2022-07-30T21:37:10.205Z,24.00
2022-07-30T21:39:41.873Z,23.59
2022-07-30T21:42:10.478Z,22.69
2022-07-30T21:44:39.498Z,22.31
2022-07-30T21:47:10.384Z,22.40
2022-07-30T21:49:39.881Z,22.52
2022-07-30T21:52:09.881Z,22.23
2022-07-30T21:54:45.082Z,22.52
2022-07-30T21:57:26.228Z,22.57
2022-07-30T21:59:55.463Z,22.33
2022-07-30T22:02:24.254Z,22.56
2022-07-30T22:04:53.685Z,21.25
2022-07-30T22:07:24.102Z,22.65
2022-07-30T22:09:52.652Z,22.64
2022-07-30T22:12:21.114Z,22.59
2022-07-30T22:14:54.241Z,21.98
2022-07-30T22:17:36.613Z,21.78
2022-07-30T22:20:08.452Z,21.82
2022-07-30T22:22:38.955Z,22.22
2022-07-30T22:25:10.180Z,22.54
2022-07-30T22:27:39.757Z,22.86
2022-07-30T22:30:10.356Z,23.22
2022-07-30T22:32:43.036Z,23.21
2022-07-30T22:35:13.422Z,23.15
2022-07-30T22:37:46.930Z,22.82
2022-07-30T22:40:16.280Z,22.68
2022-07-30T22:42:49.629Z,22.15
2022-07-30T22:45:22.265Z,22.38
2022-07-30T22:48:10.264Z,22.03
2022-07-30T22:50:40.297Z,22.82
2022-07-30T22:54:02.588Z,22.67
2022-07-30T22:55:59.450Z,22.20
2022-07-30T22:58:28.885Z,21.88
2022-07-30T23:00:58.852Z,21.87
2022-07-30T23:03:27.225Z,22.46
2022-07-30T23:05:56.344Z,22.05
2022-07-30T23:08:30.030Z,22.07
2022-07-30T23:11:00.338Z,22.38
2022-07-30T23:13:29.020Z,22.11
2022-07-30T23:15:57.481Z,22.23
2022-07-30T23:18:25.917Z,22.55
2022-07-30T23:20:58.519Z,22.39
2022-07-30T23:23:30.859Z,22.78
2022-07-30T23:26:03.199Z,22.21
2022-07-30T23:28:31.739Z,22.54
2022-07-30T23:31:00.412Z,22.36
2022-07-30T23:33:28.881Z,21.71
2022-07-30T23:35:57.868Z,22.00
2022-07-30T23:38:26.953Z,22.46
2022-07-30T23:41:01.341Z,22.46
2022-07-30T23:43:30.043Z,22.73
2022-07-30T23:45:58.464Z,22.47
2022-07-30T23:48:26.889Z,21.58
2022-07-30T23:50:55.675Z,21.18
2022-07-30T23:53:23.996Z,21.24
2022-07-30T23:55:52.568Z,21.84
2022-07-30T23:58:22.497Z,22.16
